Latest Coastal Weather Observations for McCluer Island

IDD60701

Issued at 7:25 am CST Wednesday 3 September 2014 (issued every 10 minutes, with the page automatically refreshed every 10 minutes)

About coastal observations | Map of coastal stations | Coastal observations for NT | Marine services | Other Formats
Station Details ID: 014274 Name: MCCLUER ISLAND Lat: -11.05 Lon: 132.98 Height: 1.4 m
Data from the previous 72 hours. | See also: Recent months at McCluer Island
Date/Time
CST
Temp

°C
Wind Pressure Rain
since 9am
mm
Weather Cloud Vis
km
Sea
Height
m
Swell
Dir
 
Speed
knots
Gust
knots
hPa Trend Height
m
Period
s
Dir
03/07:00am 22.0 SE 7 8 1014.2 - 0.0 - - - - - - -
03/06:30am 22.0 SE 7 8 1013.9 - 0.0 - - - - - - -
03/06:00am 21.9 SE 8 9 1013.5 - 0.0 - - - - - - -
03/05:30am 22.1 ESE 8 9 1013.0 - 0.0 - - - - - - -
03/05:00am 24.4 E 9 10 1012.7 - 0.0 - - - - - - -
03/04:30am 24.5 E 9 10 1012.7 - 0.0 - - - - - - -
03/04:00am 24.6 E 9 11 1012.7 - 0.0 - - - - - - -
03/03:30am 24.7 E 9 10 1012.7 - 0.0 - - - - - - -
03/03:00am 24.8 E 7 8 1012.9 - 0.0 - - - - - - -
03/02:30am 25.0 E 8 9 1013.2 - 0.0 - - - - - - -
03/02:00am 24.9 E 9 11 1013.7 - 0.0 - - - - - - -
03/01:30am 25.1 E 9 11 1014.2 - 0.0 - - - - - - -
03/01:00am 25.3 E 10 11 1014.5 - 0.0 - - - - - - -
03/12:30am 25.4 ENE 10 11 1014.6 - 0.0 - - - - - - -
03/12:00am 25.5 E 11 13 1014.8 - 0.0 - - - - - - -
 
Date/Time
CST
Temp

°C
Wind Pressure Rain
since 9am
mm
Weather Cloud Vis
km
Sea
Height
m
Swell
Dir
 
Speed
knots
Gust
knots
hPa Trend Height
m
Period
s
Dir
02/11:30pm 25.5 ENE 11 12 1014.8 - 0.0 - - - - - - -
02/11:00pm 25.5 ENE 11 13 1014.6 - 0.0 - - - - - - -
02/10:30pm 25.7 ENE 11 13 1014.5 - 0.0 - - - - - - -
02/10:00pm 25.4 E 11 13 1014.3 - 0.0 - - - - - - -
02/09:30pm 25.5 ENE 12 14 1014.1 - 0.0 - - - - - - -
02/09:00pm 25.5 ENE 15 17 1014.1 - 0.0 - - - - - - -
02/08:30pm 25.6 ENE 17 19 1013.9 - 0.0 - - - - - - -
02/08:00pm 25.6 ENE 19 22 1013.5 - 0.0 - - - - - - -
02/07:30pm 25.8 ENE 19 22 1013.0 - 0.0 - - - - - - -
02/07:00pm 25.9 ENE 18 22 1012.6 - 0.0 - - - - - - -
02/06:30pm 26.2 ENE 19 22 1012.2 - 0.0 - - - - - - -
02/06:00pm 26.2 ENE 19 22 1012.0 - 0.0 - - - - - - -
02/05:30pm 26.7 ENE 18 22 1011.8 - 0.0 - - - - - - -
02/05:00pm 26.9 ENE 15 18 1011.8 - 0.0 - - - - - - -
02/04:30pm 26.5 ENE 13 17 1011.8 - 0.0 - - - - - - -
02/04:00pm 26.1 ENE 11 15 1011.9 - 0.0 - - - - - - -
02/03:30pm 26.6 E 9 10 1012.1 - 0.0 - - - - - - -
02/03:00pm 26.8 E 10 11 1012.4 - 0.0 - - - - - - -
02/02:30pm 27.3 E 10 12 1012.6 - 0.0 - - - - - - -
02/02:00pm 27.7 E 10 15 1012.8 - 0.0 - - - - - - -
02/01:30pm 27.5 ESE 9 11 1013.1 - 0.0 - - - - - - -
02/01:00pm 27.1 E 9 11 1013.2 - 0.0 - - - - - - -
02/12:30pm 27.0 ESE 8 9 1013.5 - 0.0 - - - - - - -
02/12:00pm 27.0 E 9 11 1014.0 - 0.0 - - - - - - -
02/11:30am 26.3 E 11 12 1014.4 - 0.0 - - - - - - -
02/11:00am 26.4 ESE 10 12 1014.9 - 0.0 - - - - - - -
02/10:30am 26.3 ESE 10 11 1015.1 - 0.0 - - - - - - -
02/10:00am 25.7 ESE 11 13 1015.3 - 0.0 - - - - - - -
02/09:30am 26.0 ESE 13 14 1015.2 - 0.0 - - - - - - -
02/09:00am 25.9 ESE 13 15 1015.1 - 0.0 - - - - - - -
02/08:30am 25.1 ESE 12 14 1015.1 - 0.0 - - - - - - -
02/08:00am 24.7 ESE 12 14 1014.7 - 0.0 - - - - - - -
02/07:30am 24.4 ESE 12 13 1014.4 - 0.0 - - - - - - -
02/07:00am 23.7 ESE 11 13 1014.2 - 0.0 - - - - - - -
02/06:30am 23.1 ESE 10 13 1014.0 - 0.0 - - - - - - -
02/06:00am 23.9 E 11 13 1013.6 - 0.0 - - - - - - -
02/05:30am 24.0 E 12 14 1013.5 - 0.0 - - - - - - -
02/05:00am 24.2 E 13 15 1013.4 - 0.0 - - - - - - -
02/04:30am 24.1 E 14 16 1013.5 - 0.0 - - - - - - -
02/04:00am 24.4 E 15 19 1013.7 - 0.0 - - - - - - -
02/03:30am 24.5 E 17 20 1013.6 - 0.0 - - - - - - -
02/03:00am 24.6 E 17 20 1013.6 - 0.0 - - - - - - -
02/02:30am 24.8 E 15 17 1013.6 - 0.0 - - - - - - -
02/02:00am 24.8 E 15 19 1013.9 - 0.0 - - - - - - -
02/01:30am 25.0 E 12 14 1014.1 - 0.0 - - - - - - -
02/01:00am 24.9 E 13 15 1014.2 - 0.0 - - - - - - -
02/12:30am 25.2 E 14 15 1014.4 - 0.0 - - - - - - -
02/12:00am 24.8 E 12 15 1014.2 - 0.0 - - - - - - -
 
Date/Time
CST
Temp

°C
Wind Pressure Rain
since 9am
mm
Weather Cloud Vis
km
Sea
Height
m
Swell
Dir
 
Speed
knots
Gust
knots
hPa Trend Height
m
Period
s
Dir
01/11:30pm 25.3 E 9 11 1014.0 - 0.0 - - - - - - -
01/11:00pm 25.2 ENE 12 14 1013.9 - 0.0 - - - - - - -
01/10:30pm 25.4 ENE 17 20 1013.5 - 0.0 - - - - - - -
01/10:00pm 25.6 ENE 18 21 1013.3 - 0.0 - - - - - - -
01/09:30pm 25.7 ENE 18 21 1013.1 - 0.0 - - - - - - -
01/09:00pm 25.7 ENE 17 21 1012.7 - 0.0 - - - - - - -
01/08:30pm 26.1 ENE 16 20 1012.4 - 0.0 - - - - - - -
01/08:00pm 25.9 ENE 16 18 1011.9 - 0.0 - - - - - - -
01/07:30pm 25.8 ENE 17 20 1011.4 - 0.0 - - - - - - -
01/07:00pm 26.0 ENE 17 20 1011.1 - 0.0 - - - - - - -
01/06:30pm 26.1 ENE 18 21 1010.8 - 0.0 - - - - - - -
01/06:00pm 26.1 ENE 18 20 1010.7 - 0.0 - - - - - - -
01/05:30pm 26.2 ENE 17 20 1010.5 - 0.0 - - - - - - -
01/05:00pm 26.4 E 16 19 1010.5 - 0.0 - - - - - - -
01/04:30pm 26.7 ENE 17 19 1010.4 - 0.0 - - - - - - -
01/04:00pm 27.0 E 16 19 1010.5 - 0.0 - - - - - - -
01/03:30pm 27.4 E 16 19 1010.5 - 0.0 - - - - - - -
01/03:00pm 28.1 ESE 14 17 1011.0 - 0.0 - - - - - - -
01/02:30pm 28.0 E 14 17 1011.3 - 0.0 - - - - - - -
01/02:00pm 28.5 ESE 12 16 1011.7 - 0.0 - - - - - - -
01/01:30pm 29.0 ESE 14 18 1012.1 - 0.0 - - - - - - -
01/01:00pm 28.0 ESE 11 14 1012.6 - 0.0 - - - - - - -
01/12:30pm 27.8 ESE 11 14 1013.0 - 0.0 - - - - - - -
01/12:00pm 27.3 E 10 13 1013.4 - 0.0 - - - - - - -
01/11:30am 27.6 ESE 11 15 1013.7 - 0.0 - - - - - - -
01/11:00am 28.0 SE 10 13 1014.1 - 0.0 - - - - - - -
01/10:30am 26.8 E 12 14 1014.6 - 0.0 - - - - - - -
01/10:00am 25.9 ESE 11 13 1015.0 - 0.0 - - - - - - -
01/09:30am 26.1 ESE 11 12 1015.0 - 0.0 - - - - - - -
01/09:00am 25.6 E 7 8 1014.8 - 0.0 - - - - - - -
01/08:30am 25.4 E 7 9 1014.6 - 0.0 - - - - - - -
01/08:00am 25.0 ESE 7 10 1014.7 - 0.0 - - - - - - -
01/07:30am 24.5 E 11 13 1014.3 - 0.0 - - - - - - -
01/07:00am 24.4 E 11 12 1013.9 - 0.0 - - - - - - -
01/06:30am 24.2 E 13 15 1013.5 - 0.0 - - - - - - -
01/06:00am 24.3 E 14 16 1013.3 - 0.0 - - - - - - -
01/05:30am 24.3 E 15 18 1013.1 - 0.0 - - - - - - -
01/05:00am 24.5 E 18 21 1012.9 - 0.0 - - - - - - -
01/04:30am 24.6 E 19 22 1012.7 - 0.0 - - - - - - -
01/04:00am 24.8 E 17 20 1012.7 - 0.0 - - - - - - -
01/03:30am 24.7 E 17 20 1012.5 - 0.0 - - - - - - -
01/03:00am 24.9 E 17 20 1012.8 - 0.0 - - - - - - -
01/02:30am 24.7 E 17 19 1012.8 - 0.0 - - - - - - -
01/02:00am 25.0 ENE 17 20 1013.1 - 0.0 - - - - - - -
01/01:30am 24.8 ENE 18 20 1013.2 - 0.0 - - - - - - -
01/01:00am 25.1 E 16 19 1013.4 - 0.0 - - - - - - -
01/12:30am 25.0 E 15 16 1013.3 - 0.0 - - - - - - -
01/12:00am 24.8 ENE 13 15 1013.2 - 0.0 - - - - - - -
 
Date/Time
CST
Temp

°C
Wind Pressure Rain
since 9am
mm
Weather Cloud Vis
km
Sea
Height
m
Swell
Dir
 
Speed
knots
Gust
knots
hPa Trend Height
m
Period
s
Dir
31/11:30pm 25.3 ENE 14 16 1012.9 - 0.0 - - - - - - -
31/11:00pm 25.0 ENE 13 15 1012.9 - 0.0 - - - - - - -
31/10:30pm 25.1 ENE 13 16 1012.8 - 0.0 - - - - - - -
31/10:00pm 25.1 ENE 14 16 1012.7 - 0.0 - - - - - - -
31/09:30pm 25.0 ENE 16 18 1012.4 - 0.0 - - - - - - -
31/09:00pm 25.3 ENE 15 16 1012.0 - 0.0 - - - - - - -
31/08:30pm 25.3 ENE 14 16 1011.6 - 0.0 - - - - - - -
31/08:00pm 25.7 ENE 13 15 1011.4 - 0.0 - - - - - - -
31/07:30pm 25.6 ENE 15 17 1011.0 - 0.0 - - - - - - -
31/07:00pm 25.5 ENE 15 18 1010.6 - 0.0 - - - - - - -
31/06:30pm 25.6 ENE 14 16 1010.3 - 0.0 - - - - - - -
31/06:00pm 25.5 ENE 16 18 1010.0 - 0.0 - - - - - - -
31/05:30pm 25.8 ENE 15 17 1010.0 - 0.0 - - - - - - -
31/05:00pm 26.2 E 14 16 1009.9 - 0.0 - - - - - - -
31/04:30pm 26.2 E 14 16 1010.0 - 0.0 - - - - - - -
31/04:00pm 26.4 E 13 15 1010.4 - 0.0 - - - - - - -
31/03:30pm 26.4 E 14 16 1010.4 - 0.0 - - - - - - -
31/03:00pm 26.3 E 12 15 1010.5 - 0.0 - - - - - - -
31/02:30pm 26.0 E 12 14 1010.9 - 0.0 - - - - - - -
31/02:00pm 26.5 E 12 15 1011.2 - 0.0 - - - - - - -
31/01:30pm 27.0 ESE 12 15 1011.4 - 0.0 - - - - - - -
31/01:00pm 26.0 E 13 15 1011.9 - 0.0 - - - - - - -
31/12:30pm 26.1 ESE 12 15 1012.2 - 0.0 - - - - - - -
31/12:00pm 26.6 E 13 15 1012.7 - 0.0 - - - - - - -
31/11:30am 27.0 ESE 11 16 1013.1 - 0.0 - - - - - - -
31/11:00am 27.5 ESE 11 15 1013.5 - 0.0 - - - - - - -
31/10:30am 27.1 ESE 11 15 1013.8 - 0.0 - - - - - - -
31/10:00am 26.2 ESE 12 16 1013.9 - 0.0 - - - - - - -
31/09:30am 25.5 ESE 12 13 1014.1 - 0.0 - - - - - - -
31/09:00am 25.3 ESE 12 13 1014.2 - 0.0 - - - - - - -
31/08:30am 24.8 ESE 12 14 1014.0 - 0.0 - - - - - - -
31/08:00am 24.9 E 12 14 1013.8 - 0.0 - - - - - - -
31/07:30am 24.6 E 13 15 1013.4 - 0.0 - - - - - - -

Other Formats:

Comma delimited format used in spreadsheet applications
http://www.bom.gov.au/fwo/IDD60701/IDD60701.94135.axf

JavaScript Object Notation format (JSON) in row-major order
http://www.bom.gov.au/fwo/IDD60701/IDD60701.94135.json